OIBS METAR and TAF | Updated Today

OIBS METAR

Sirri Island Airport

Observation time: 6:59 hr. ago

OIBS 291500Z 00000KT 4000 HZ NSC 32/24 Q1005

Need help? Read our tutorial on how to read METARs or read the parsed version below.

Sirri Island Airport (OIBS) METAR

  • Weather conditions on Thu, 29 Sep 2022 15:00:00 +0000 (6:59 hr. ago):
  • Present conditions: Haze
  • Clouds: No significant clouds are observed
  • Visibility: 4000 meters
  • Wind: Calm
  • Temperature: 32 celsius
  • Dew point: 24 celsius
  • Pressure: 1005 millibars
  • Remarks: None


Useful to know...